Time;durP1;ratioP1;P1;durP2;ratioP2;P2;SDS_P1;SDS_P2;PMS_P1;PMS_P2;Temp;Humidity;BMP_temperature;BMP_pressure;BME280_temperature;BME280_humidity;BME280_pressure;Samples;Min_cycle;Max_cycle;Signal;HPM_P1;HPM_P2
2023/05/29 00:02:14;;;;;;;9.70;3.30;;;;;;;;;;5052533;28;20254;-51
2023/05/29 00:04:40;;;;;;;6.00;2.60;;;;;;;;;;5050706;28;20723;-51
2023/05/29 00:07:06;;;;;;;8.63;2.70;;;;;;;;;;5051787;28;20280;-54
2023/05/29 00:09:32;;;;;;;9.13;3.07;;;;;;;;;;5052497;28;20227;-52
2023/05/29 00:11:58;;;;;;;10.30;3.37;;;;;;;;;;5054208;28;20580;-53
2023/05/29 00:14:26;;;;;;;6.63;2.73;;;;;;;;;;5054216;28;20218;-52
2023/05/29 00:16:52;;;;;;;11.17;3.00;;;;;;;;;;5054277;28;20333;-53
2023/05/29 00:19:19;;;;;;;6.63;2.83;;;;;;;;;;5054140;28;20250;-53
2023/05/29 00:21:47;;;;;;;8.13;2.70;;;;;;;;;;5054023;28;20207;-53
2023/05/29 00:24:13;;;;;;;6.80;2.80;;;;;;;;;;5053845;28;20248;-52
2023/05/29 00:26:39;;;;;;;9.77;3.17;;;;;;;;;;5053958;28;20566;-52
2023/05/29 00:29:06;;;;;;;7.87;2.43;;;;;;;;;;5053985;28;20198;-52
2023/05/29 00:31:33;;;;;;;6.97;2.90;;;;;;;;;;5054052;28;20200;-52
2023/05/29 00:33:59;;;;;;;9.63;2.93;;;;;;;;;;5057751;28;20200;-53
2023/05/29 00:36:26;;;;;;;6.00;2.67;;;;;;;;;;5073900;28;20303;-53
2023/05/29 00:38:52;;;;;;;7.40;2.70;;;;;;;;;;5073607;28;20215;-52
2023/05/29 00:41:18;;;;;;;6.83;2.90;;;;;;;;;;5073850;28;20565;-53
2023/05/29 00:43:44;;;;;;;4.77;2.27;;;;;;;;;;5073740;28;20199;-51
2023/05/29 00:46:10;;;;;;;9.93;2.80;;;;;;;;;;5073388;28;20248;-51
2023/05/29 00:48:38;;;;;;;8.63;3.27;;;;;;;;;;5073611;28;20213;-51
2023/05/29 00:51:04;;;;;;;6.90;2.80;;;;;;;;;;5073438;28;20326;-52
2023/05/29 00:53:30;;;;;;;8.43;2.97;;;;;;;;;;5073752;28;20195;-51
2023/05/29 00:55:56;;;;;;;9.77;3.00;;;;;;;;;;5073242;28;20662;-53
2023/05/29 00:58:22;;;;;;;7.20;3.03;;;;;;;;;;5073412;28;20582;-53
2023/05/29 01:00:48;;;;;;;8.70;3.03;;;;;;;;;;5073373;28;20199;-53
2023/05/29 01:03:16;;;;;;;7.53;2.83;;;;;;;;;;5073256;28;20199;-53
2023/05/29 01:05:44;;;;;;;11.63;2.87;;;;;;;;;;5072768;28;20219;-53
2023/05/29 01:08:10;;;;;;;10.60;3.80;;;;;;;;;;5073208;28;20674;-52
2023/05/29 01:10:36;;;;;;;9.47;3.27;;;;;;;;;;5073274;28;20195;-52
2023/05/29 01:13:05;;;;;;;7.57;3.20;;;;;;;;;;5073077;28;20309;-54
2023/05/29 01:15:36;;;;;;;8.23;3.20;;;;;;;;;;5073048;28;20333;-52
2023/05/29 01:18:08;;;;;;;7.93;3.40;;;;;;;;;;5072880;28;20203;-52
2023/05/29 01:20:37;;;;;;;8.60;2.93;;;;;;;;;;5073086;28;20569;-52
2023/05/29 01:23:11;;;;;;;6.87;2.70;;;;;;;;;;5072678;28;20755;-52
2023/05/29 01:25:51;;;;;;;7.23;2.80;;;;;;;;;;5072811;28;20199;-53
2023/05/29 01:28:20;;;;;;;9.97;3.30;;;;;;;;;;5072965;28;20195;-53
2023/05/29 01:30:47;;;;;;;9.47;3.20;;;;;;;;;;5072646;28;20281;-54
2023/05/29 01:33:13;;;;;;;8.80;3.13;;;;;;;;;;5072850;28;20336;-52
2023/05/29 01:35:39;;;;;;;12.23;3.17;;;;;;;;;;5072651;28;20310;-53
2023/05/29 01:38:05;;;;;;;9.70;3.20;;;;;;;;;;5072594;28;20200;-52
2023/05/29 01:40:31;;;;;;;6.73;2.97;;;;;;;;;;5072434;28;20203;-53
2023/05/29 01:42:57;;;;;;;10.13;2.97;;;;;;;;;;5072384;28;20203;-52
2023/05/29 01:45:25;;;;;;;9.07;2.70;;;;;;;;;;5072584;28;20200;-52
2023/05/29 01:47:51;;;;;;;9.30;3.47;;;;;;;;;;5072376;28;20294;-52
2023/05/29 01:50:19;;;;;;;10.57;3.70;;;;;;;;;;5072560;28;20249;-52
2023/05/29 01:52:45;;;;;;;10.57;3.10;;;;;;;;;;5072299;28;20192;-52
2023/05/29 01:55:11;;;;;;;13.27;3.00;;;;;;;;;;5072388;28;20195;-52
2023/05/29 01:57:38;;;;;;;8.60;3.43;;;;;;;;;;5072504;28;20631;-52
2023/05/29 02:00:08;;;;;;;12.30;3.60;;;;;;;;;;5072225;28;20318;-53
2023/05/29 02:02:37;;;;;;;9.97;3.57;;;;;;;;;;5072301;28;20184;-52
2023/05/29 02:05:04;;;;;;;14.37;3.40;;;;;;;;;;5072056;28;20224;-52
2023/05/29 02:07:30;;;;;;;9.43;3.20;;;;;;;;;;5072107;28;20203;-53
2023/05/29 02:09:56;;;;;;;8.93;3.37;;;;;;;;;;5071912;28;20187;-53
2023/05/29 02:12:22;;;;;;;10.03;3.47;;;;;;;;;;5072180;28;20795;-52
2023/05/29 02:14:49;;;;;;;7.20;2.57;;;;;;;;;;5072143;28;20206;-53
2023/05/29 02:17:15;;;;;;;10.97;3.83;;;;;;;;;;5071644;28;20201;-52
2023/05/29 02:19:42;;;;;;;11.93;3.20;;;;;;;;;;5071441;28;20711;-52
2023/05/29 02:22:08;;;;;;;11.70;3.57;;;;;;;;;;5071800;28;20735;-51
2023/05/29 02:24:34;;;;;;;5.43;2.70;;;;;;;;;;5071864;28;20235;-52
2023/05/29 02:27:00;;;;;;;13.50;3.37;;;;;;;;;;5071719;28;20572;-52
2023/05/29 02:29:26;;;;;;;10.63;3.10;;;;;;;;;;5071932;28;20188;-53
2023/05/29 02:31:52;;;;;;;7.57;2.90;;;;;;;;;;5071906;28;20261;-52
2023/05/29 02:34:18;;;;;;;6.07;2.87;;;;;;;;;;5071732;28;20662;-53
2023/05/29 02:36:46;;;;;;;10.80;3.17;;;;;;;;;;5071786;28;20194;-52
2023/05/29 02:39:12;;;;;;;9.10;3.03;;;;;;;;;;5072189;28;20238;-52
2023/05/29 02:41:38;;;;;;;7.70;2.67;;;;;;;;;;5071735;28;20662;-53
2023/05/29 02:44:04;;;;;;;9.40;3.10;;;;;;;;;;5072149;28;20221;-52
2023/05/29 02:46:30;;;;;;;9.57;3.50;;;;;;;;;;5071762;28;20199;-51
2023/05/29 02:48:56;;;;;;;6.80;3.03;;;;;;;;;;5071580;28;20684;-52
2023/05/29 02:51:22;;;;;;;12.97;3.93;;;;;;;;;;5071618;28;20290;-52
2023/05/29 02:53:49;;;;;;;9.23;3.10;;;;;;;;;;5071668;28;20199;-51
2023/05/29 02:56:15;;;;;;;7.60;2.93;;;;;;;;;;5071504;28;20207;-51
2023/05/29 02:58:42;;;;;;;8.47;3.00;;;;;;;;;;5071494;28;20241;-52
2023/05/29 03:01:08;;;;;;;8.60;3.43;;;;;;;;;;5071685;28;20253;-52
2023/05/29 03:03:34;;;;;;;8.20;2.90;;;;;;;;;;5071699;28;20206;-51
2023/05/29 03:06:02;;;;;;;9.77;2.83;;;;;;;;;;5071449;28;20234;-50
2023/05/29 03:08:28;;;;;;;11.00;2.97;;;;;;;;;;5071580;28;20188;-51
2023/05/29 03:10:56;;;;;;;8.33;2.63;;;;;;;;;;5071454;28;20207;-52
2023/05/29 03:13:22;;;;;;;9.90;3.10;;;;;;;;;;5071591;28;20253;-52
2023/05/29 03:15:48;;;;;;;14.00;3.93;;;;;;;;;;5071407;28;20207;-50
2023/05/29 03:18:15;;;;;;;5.70;2.60;;;;;;;;;;5070870;28;20200;-51
2023/05/29 03:20:41;;;;;;;9.17;2.63;;;;;;;;;;5070590;28;20200;-52
2023/05/29 03:23:07;;;;;;;10.47;3.00;;;;;;;;;;5071119;28;20243;-51
2023/05/29 03:25:33;;;;;;;9.43;2.67;;;;;;;;;;5071357;28;20200;-52
2023/05/29 03:28:00;;;;;;;10.13;3.47;;;;;;;;;;5070981;28;20207;-51
2023/05/29 03:30:26;;;;;;;11.23;2.90;;;;;;;;;;5074003;28;20219;-52
2023/05/29 03:32:52;;;;;;;9.17;3.10;;;;;;;;;;5075021;28;20628;-52
2023/05/29 03:35:18;;;;;;;10.60;2.67;;;;;;;;;;5074976;28;20196;-52
2023/05/29 03:37:44;;;;;;;9.73;2.67;;;;;;;;;;5074917;28;20196;-52
2023/05/29 03:40:11;;;;;;;7.03;2.90;;;;;;;;;;5074790;28;20274;-52
2023/05/29 03:42:37;;;;;;;8.30;3.10;;;;;;;;;;5074968;28;20200;-52
2023/05/29 03:45:04;;;;;;;7.13;2.57;;;;;;;;;;5074968;28;20638;-51
2023/05/29 03:47:30;;;;;;;11.10;3.30;;;;;;;;;;5074859;28;20260;-51
2023/05/29 03:49:56;;;;;;;7.00;2.37;;;;;;;;;;5074645;28;20188;-52
2023/05/29 03:52:22;;;;;;;8.37;3.37;;;;;;;;;;5074633;28;20208;-53
2023/05/29 03:54:48;;;;;;;9.77;3.00;;;;;;;;;;5074622;28;20658;-53
2023/05/29 03:57:14;;;;;;;10.63;3.30;;;;;;;;;;5074529;28;20203;-52
2023/05/29 03:59:40;;;;;;;10.33;3.20;;;;;;;;;;5074639;28;20232;-52
2023/05/29 04:02:08;;;;;;;8.33;2.90;;;;;;;;;;5074451;28;20254;-52
2023/05/29 04:04:34;;;;;;;10.43;2.90;;;;;;;;;;5074400;28;20276;-51
2023/05/29 04:07:01;;;;;;;8.67;2.27;;;;;;;;;;5074197;28;20740;-52
2023/05/29 04:09:27;;;;;;;8.17;2.67;;;;;;;;;;5074435;28;20194;-52
2023/05/29 04:11:54;;;;;;;11.87;2.77;;;;;;;;;;5074344;28;20274;-53
2023/05/29 04:14:20;;;;;;;11.93;3.10;;;;;;;;;;5074328;28;20738;-51
2023/05/29 04:16:46;;;;;;;10.33;3.27;;;;;;;;;;5074342;28;20291;-52
2023/05/29 04:19:13;;;;;;;9.97;2.77;;;;;;;;;;5074016;28;20238;-51
2023/05/29 04:21:39;;;;;;;8.63;3.10;;;;;;;;;;5074157;28;20206;-52
2023/05/29 04:24:06;;;;;;;8.27;2.80;;;;;;;;;;5073919;28;20277;-52
2023/05/29 04:26:32;;;;;;;10.17;2.97;;;;;;;;;;5074058;28;20204;-51
2023/05/29 04:28:58;;;;;;;8.83;3.30;;;;;;;;;;5073874;28;20199;-51
2023/05/29 04:31:26;;;;;;;8.50;2.83;;;;;;;;;;5074092;28;20219;-52
2023/05/29 04:33:54;;;;;;;10.03;2.80;;;;;;;;;;5074003;28;20210;-51
2023/05/29 04:36:25;;;;;;;9.60;3.27;;;;;;;;;;5073954;28;20201;-51
2023/05/29 04:38:51;;;;;;;8.37;3.03;;;;;;;;;;5073823;28;20223;-52
2023/05/29 04:41:17;;;;;;;9.83;2.97;;;;;;;;;;5073141;28;20222;-52
2023/05/29 04:43:43;;;;;;;6.63;2.60;;;;;;;;;;5073606;28;20200;-53
2023/05/29 04:46:12;;;;;;;8.90;3.23;;;;;;;;;;5073632;28;20798;-53
2023/05/29 04:48:40;;;;;;;10.70;3.23;;;;;;;;;;5073646;28;20214;-53
2023/05/29 04:51:06;;;;;;;8.53;2.87;;;;;;;;;;5073494;28;20278;-53
2023/05/29 04:53:33;;;;;;;8.33;2.83;;;;;;;;;;5073735;28;20199;-53
2023/05/29 04:56:00;;;;;;;8.97;3.30;;;;;;;;;;5073421;28;20203;-52
2023/05/29 04:58:26;;;;;;;8.67;3.33;;;;;;;;;;5073308;28;20195;-52
2023/05/29 05:00:52;;;;;;;10.90;3.20;;;;;;;;;;5073440;28;20238;-53
2023/05/29 05:03:18;;;;;;;12.57;3.10;;;;;;;;;;5073482;28;20214;-53
2023/05/29 05:05:44;;;;;;;11.63;3.33;;;;;;;;;;5073165;28;20222;-52
2023/05/29 05:08:11;;;;;;;11.17;3.20;;;;;;;;;;5073167;28;20206;-53
2023/05/29 05:10:39;;;;;;;9.03;3.17;;;;;;;;;;5073261;28;20200;-52
2023/05/29 05:13:07;;;;;;;8.80;3.37;;;;;;;;;;5073186;28;20200;-53
2023/05/29 05:15:33;;;;;;;7.37;3.00;;;;;;;;;;5073080;28;20196;-53
2023/05/29 05:17:59;;;;;;;14.43;3.40;;;;;;;;;;5072974;28;20877;-52
2023/05/29 05:20:25;;;;;;;8.30;3.53;;;;;;;;;;5072869;28;20280;-54
2023/05/29 05:22:51;;;;;;;11.87;3.50;;;;;;;;;;5072740;28;20596;-53
2023/05/29 05:25:17;;;;;;;8.70;3.23;;;;;;;;;;5072827;28;20209;-53
2023/05/29 05:27:45;;;;;;;11.80;3.80;;;;;;;;;;5072910;28;20223;-53
2023/05/29 05:30:11;;;;;;;7.87;2.70;;;;;;;;;;5072591;28;20613;-53
2023/05/29 05:32:37;;;;;;;13.40;3.20;;;;;;;;;;5072996;28;20278;-53
2023/05/29 05:35:04;;;;;;;8.20;3.10;;;;;;;;;;5072532;28;20286;-53
2023/05/29 05:37:30;;;;;;;8.90;3.17;;;;;;;;;;5072706;28;20253;-53
2023/05/29 05:39:58;;;;;;;9.60;3.23;;;;;;;;;;5072466;28;20227;-53
2023/05/29 05:42:24;;;;;;;8.53;3.00;;;;;;;;;;5072588;28;20260;-53
2023/05/29 05:44:51;;;;;;;13.80;3.00;;;;;;;;;;5070764;28;20191;-51
2023/05/29 05:47:17;;;;;;;8.87;3.00;;;;;;;;;;5072394;28;20221;-51
2023/05/29 05:49:43;;;;;;;9.60;3.03;;;;;;;;;;5072485;28;20720;-51
2023/05/29 05:52:09;;;;;;;10.23;2.83;;;;;;;;;;5070233;28;20199;-53
2023/05/29 05:54:35;;;;;;;11.80;3.27;;;;;;;;;;5070796;28;20199;-51
2023/05/29 05:57:02;;;;;;;6.60;2.43;;;;;;;;;;5071473;28;20738;-51
2023/05/29 05:59:28;;;;;;;8.07;2.90;;;;;;;;;;5071774;28;20237;-51
2023/05/29 06:01:56;;;;;;;7.57;2.80;;;;;;;;;;5072166;28;20199;-50
2023/05/29 06:04:22;;;;;;;9.27;3.00;;;;;;;;;;5072057;28;20227;-51
2023/05/29 06:06:48;;;;;;;8.63;2.83;;;;;;;;;;5072074;28;20187;-50
2023/05/29 06:09:14;;;;;;;7.57;2.57;;;;;;;;;;5072057;28;20779;-50
2023/05/29 06:11:40;;;;;;;9.67;2.90;;;;;;;;;;5071985;28;20256;-50
2023/05/29 06:14:06;;;;;;;7.87;2.93;;;;;;;;;;5072096;28;20199;-51
2023/05/29 06:16:32;;;;;;;11.87;3.20;;;;;;;;;;5072076;28;20287;-52
2023/05/29 06:18:59;;;;;;;8.27;2.50;;;;;;;;;;5071999;28;20303;-53
2023/05/29 06:21:25;;;;;;;11.40;3.13;;;;;;;;;;5071614;28;20740;-52
2023/05/29 06:23:51;;;;;;;11.33;2.97;;;;;;;;;;5071876;28;20330;-52
2023/05/29 06:26:17;;;;;;;8.50;2.63;;;;;;;;;;5071983;28;20290;-51
2023/05/29 06:28:43;;;;;;;9.30;3.03;;;;;;;;;;5071690;28;20566;-52
2023/05/29 06:31:09;;;;;;;5.80;2.50;;;;;;;;;;5071633;28;20203;-51
2023/05/29 06:33:37;;;;;;;8.53;3.23;;;;;;;;;;5072085;28;20200;-51
2023/05/29 06:36:05;;;;;;;7.53;2.57;;;;;;;;;;5071785;28;20290;-52
2023/05/29 06:38:31;;;;;;;9.80;3.30;;;;;;;;;;5071875;28;20606;-52
2023/05/29 06:40:57;;;;;;;11.70;3.30;;;;;;;;;;5072085;28;20199;-52
2023/05/29 06:43:23;;;;;;;7.20;2.67;;;;;;;;;;5071978;28;20723;-53
2023/05/29 06:45:49;;;;;;;10.00;3.60;;;;;;;;;;5071863;28;20227;-52
2023/05/29 06:48:15;;;;;;;7.77;3.23;;;;;;;;;;5071681;28;20247;-53
2023/05/29 06:50:41;;;;;;;8.97;2.90;;;;;;;;;;5072173;28;20187;-53
2023/05/29 06:53:08;;;;;;;8.67;3.23;;;;;;;;;;5072889;28;20286;-53
2023/05/29 06:55:34;;;;;;;8.33;2.90;;;;;;;;;;5071945;28;20298;-53
2023/05/29 06:58:00;;;;;;;10.53;3.10;;;;;;;;;;5071671;28;20200;-53
2023/05/29 07:00:27;;;;;;;8.10;2.87;;;;;;;;;;5069428;28;20219;-53
2023/05/29 07:02:53;;;;;;;7.80;3.07;;;;;;;;;;5071515;28;20204;-53
2023/05/29 07:05:19;;;;;;;9.87;3.23;;;;;;;;;;5074076;28;20215;-52
2023/05/29 07:07:45;;;;;;;14.33;3.80;;;;;;;;;;5075543;28;20195;-53
2023/05/29 07:10:12;;;;;;;8.33;2.77;;;;;;;;;;5075437;28;20203;-52
2023/05/29 07:12:38;;;;;;;10.00;3.60;;;;;;;;;;5075574;28;20214;-52
2023/05/29 07:15:05;;;;;;;6.67;2.97;;;;;;;;;;5075300;28;20289;-51
2023/05/29 07:17:31;;;;;;;6.90;3.17;;;;;;;;;;5075374;28;20200;-51
2023/05/29 07:19:57;;;;;;;12.43;3.53;;;;;;;;;;5075087;28;20230;-52
2023/05/29 07:22:23;;;;;;;7.03;3.20;;;;;;;;;;5075357;28;20207;-52
2023/05/29 07:24:49;;;;;;;8.50;3.23;;;;;;;;;;5075095;28;20238;-52
2023/05/29 07:27:16;;;;;;;6.77;3.13;;;;;;;;;;5074948;28;20207;-52
2023/05/29 07:29:42;;;;;;;9.67;3.60;;;;;;;;;;5075165;28;20211;-51
2023/05/29 07:32:09;;;;;;;8.80;3.40;;;;;;;;;;5075021;28;20219;-52
2023/05/29 07:34:35;;;;;;;8.90;2.90;;;;;;;;;;5075094;28;20715;-50
2023/05/29 07:37:03;;;;;;;11.33;3.00;;;;;;;;;;5074930;28;20202;-52
2023/05/29 07:39:29;;;;;;;9.70;3.23;;;;;;;;;;5074995;28;20223;-51
2023/05/29 07:41:55;;;;;;;7.80;3.20;;;;;;;;;;5074823;28;20206;-53
2023/05/29 07:44:23;;;;;;;10.87;3.37;;;;;;;;;;5074990;28;20206;-52
2023/05/29 07:46:49;;;;;;;8.37;2.80;;;;;;;;;;5074894;28;20204;-52
2023/05/29 07:49:15;;;;;;;7.73;3.23;;;;;;;;;;5074621;28;20646;-52
2023/05/29 07:51:41;;;;;;;11.83;3.23;;;;;;;;;;5074615;28;20541;-53
2023/05/29 07:54:07;;;;;;;7.23;2.90;;;;;;;;;;5074597;28;20218;-53
2023/05/29 07:56:37;;;;;;;9.20;3.47;;;;;;;;;;5074820;28;20209;-53
2023/05/29 07:59:03;;;;;;;6.43;2.80;;;;;;;;;;5074352;28;20233;-53
2023/05/29 08:01:30;;;;;;;7.63;3.23;;;;;;;;;;5074637;28;20202;-54
2023/05/29 08:03:56;;;;;;;8.30;2.93;;;;;;;;;;5074260;28;20241;-53
2023/05/29 08:06:22;;;;;;;5.93;2.50;;;;;;;;;;5074482;28;20806;-54
2023/05/29 08:08:48;;;;;;;7.90;2.93;;;;;;;;;;5074435;28;20256;-54
2023/05/29 08:11:14;;;;;;;6.50;2.80;;;;;;;;;;5074199;28;20198;-54
2023/05/29 08:13:41;;;;;;;10.27;3.27;;;;;;;;;;5074366;28;20221;-55
2023/05/29 08:16:07;;;;;;;9.57;5.50;;;;;;;;;;5072781;28;20198;-54
2023/05/29 08:18:35;;;;;;;7.47;3.63;;;;;;;;;;5074476;28;20304;-54
2023/05/29 08:21:01;;;;;;;9.20;3.13;;;;;;;;;;5074156;28;20263;-53
2023/05/29 08:23:27;;;;;;;7.57;3.13;;;;;;;;;;5074075;28;20283;-53
2023/05/29 08:25:53;;;;;;;9.33;2.97;;;;;;;;;;5074211;28;20203;-54
2023/05/29 08:28:19;;;;;;;9.90;2.90;;;;;;;;;;5074399;28;20218;-55
2023/05/29 08:30:45;;;;;;;9.60;3.33;;;;;;;;;;5074257;28;20201;-54
2023/05/29 08:33:11;;;;;;;7.50;2.80;;;;;;;;;;5074259;28;20248;-54
2023/05/29 08:35:39;;;;;;;9.47;3.03;;;;;;;;;;5074324;28;20615;-54
2023/05/29 08:38:06;;;;;;;8.90;3.03;;;;;;;;;;5074406;28;20205;-54
2023/05/29 08:40:32;;;;;;;10.03;3.00;;;;;;;;;;5074266;28;20765;-54
2023/05/29 08:43:00;;;;;;;9.60;3.37;;;;;;;;;;5074177;28;20290;-54
2023/05/29 08:45:26;;;;;;;5.23;2.50;;;;;;;;;;5074164;28;20199;-54
2023/05/29 08:47:53;;;;;;;8.93;2.97;;;;;;;;;;5074127;28;20199;-52
2023/05/29 08:50:20;;;;;;;8.33;3.63;;;;;;;;;;5073946;28;20187;-53
2023/05/29 08:52:48;;;;;;;8.43;2.87;;;;;;;;;;5074030;28;20287;-53
2023/05/29 08:55:14;;;;;;;6.67;2.87;;;;;;;;;;5073941;28;20315;-54
2023/05/29 08:57:42;;;;;;;10.20;3.27;;;;;;;;;;5073854;28;20192;-54
2023/05/29 09:00:12;;;;;;;6.20;2.73;;;;;;;;;;5073717;28;20318;-54
2023/05/29 09:02:38;;;;;;;7.57;2.70;;;;;;;;;;5071956;28;20195;-54
2023/05/29 09:05:06;;;;;;;6.90;2.57;;;;;;;;;;5073551;28;20273;-54
2023/05/29 09:07:32;;;;;;;5.70;3.00;;;;;;;;;;5073640;28;20216;-54
2023/05/29 09:10:00;;;;;;;8.60;2.60;;;;;;;;;;5073524;28;20180;-54
2023/05/29 09:12:26;;;;;;;7.80;2.83;;;;;;;;;;5073540;28;20270;-54
2023/05/29 09:14:52;;;;;;;6.70;2.60;;;;;;;;;;5073552;28;20207;-54
2023/05/29 09:17:18;;;;;;;6.77;2.80;;;;;;;;;;5073423;28;20200;-54
2023/05/29 09:19:45;;;;;;;4.80;2.47;;;;;;;;;;5073302;28;20569;-54
2023/05/29 09:22:14;;;;;;;6.30;2.93;;;;;;;;;;5063002;28;20200;-54
2023/05/29 09:24:41;;;;;;;8.90;4.67;;;;;;;;;;5062277;28;20740;-54
2023/05/29 09:27:08;;;;;;;7.43;2.83;;;;;;;;;;5062265;28;20203;-54
2023/05/29 09:29:38;;;;;;;5.83;2.77;;;;;;;;;;5060959;28;20199;-54
2023/05/29 09:32:07;;;;;;;6.07;2.70;;;;;;;;;;5061529;28;20617;-54
2023/05/29 09:34:34;;;;;;;5.70;2.73;;;;;;;;;;5063308;28;20196;-54
2023/05/29 09:37:07;;;;;;;8.70;3.10;;;;;;;;;;5062045;28;20202;-54
2023/05/29 09:39:33;;;;;;;8.13;2.90;;;;;;;;;;5062687;28;20225;-54
2023/05/29 09:41:59;;;;;;;8.73;2.77;;;;;;;;;;5061273;28;20197;-55
2023/05/29 09:44:28;;;;;;;6.37;2.80;;;;;;;;;;5061358;28;20209;-53
2023/05/29 09:46:58;;;;;;;5.83;2.70;;;;;;;;;;5062666;28;20220;-54
2023/05/29 09:49:24;;;;;;;7.73;3.07;;;;;;;;;;5061648;28;20212;-55
2023/05/29 09:51:53;;;;;;;6.30;2.80;;;;;;;;;;5060767;28;20203;-54
2023/05/29 09:54:19;;;;;;;7.17;2.93;;;;;;;;;;5060961;28;20208;-54
2023/05/29 09:56:47;;;;;;;8.10;3.10;;;;;;;;;;5061737;28;20281;-54
2023/05/29 09:59:13;;;;;;;8.00;2.80;;;;;;;;;;5062246;28;20216;-55
2023/05/29 10:01:42;;;;;;;8.30;3.43;;;;;;;;;;5070086;28;20665;-54
2023/05/29 10:04:10;;;;;;;8.90;2.77;;;;;;;;;;5072296;28;20774;-54
2023/05/29 10:06:36;;;;;;;6.23;2.63;;;;;;;;;;5072670;28;20205;-55
2023/05/29 10:09:03;;;;;;;7.63;3.97;;;;;;;;;;5072489;28;20288;-53
2023/05/29 10:11:31;;;;;;;6.90;2.83;;;;;;;;;;5072420;28;20198;-54
2023/05/29 10:13:57;;;;;;;8.37;3.03;;;;;;;;;;5072923;28;20205;-53
2023/05/29 10:16:25;;;;;;;6.93;3.00;;;;;;;;;;5072900;28;20255;-53
2023/05/29 10:18:54;;;;;;;7.07;2.83;;;;;;;;;;5073000;28;20200;-54
2023/05/29 10:21:21;;;;;;;6.53;2.77;;;;;;;;;;5072403;28;20275;-54
2023/05/29 10:23:48;;;;;;;7.07;2.73;;;;;;;;;;5072275;28;20596;-53
2023/05/29 10:26:18;;;;;;;7.00;2.87;;;;;;;;;;5072141;28;20198;-53
2023/05/29 10:28:47;;;;;;;6.03;2.70;;;;;;;;;;5072357;28;20239;-53
2023/05/29 10:31:17;;;;;;;7.57;2.90;;;;;;;;;;5072114;28;20202;-53
2023/05/29 10:33:49;;;;;;;9.30;3.17;;;;;;;;;;5072080;28;20321;-53
2023/05/29 10:36:18;;;;;;;8.97;5.97;;;;;;;;;;5072098;28;20203;-53
2023/05/29 10:38:45;;;;;;;12.30;3.70;;;;;;;;;;5071463;28;20705;-54
2023/05/29 10:41:32;;;;;;;7.80;3.20;;;;;;;;;;5071945;28;20229;-54
2023/05/29 10:43:59;;;;;;;9.70;2.73;;;;;;;;;;5072012;28;20281;-53
2023/05/29 10:46:40;;;;;;;7.90;3.23;;;;;;;;;;5072216;28;20191;-54
2023/05/29 10:49:15;;;;;;;8.57;2.93;;;;;;;;;;5071687;28;20719;-54
2023/05/29 10:51:43;;;;;;;7.57;2.93;;;;;;;;;;5071950;28;20195;-54
2023/05/29 10:54:09;;;;;;;8.03;3.23;;;;;;;;;;5071871;28;20252;-53
2023/05/29 10:56:35;;;;;;;8.17;2.90;;;;;;;;;;5072070;28;20199;-53
2023/05/29 10:59:01;;;;;;;10.17;3.23;;;;;;;;;;5071785;28;20728;-53
2023/05/29 11:01:28;;;;;;;5.93;3.20;;;;;;;;;;5071809;28;20187;-54
2023/05/29 11:03:54;;;;;;;10.30;2.87;;;;;;;;;;5071781;28;20219;-54
2023/05/29 11:06:21;;;;;;;8.57;2.73;;;;;;;;;;5071887;28;20301;-54
2023/05/29 11:08:53;;;;;;;6.77;3.30;;;;;;;;;;5071897;28;20618;-53
2023/05/29 11:11:30;;;;;;;6.53;3.30;;;;;;;;;;5071840;28;20195;-54
2023/05/29 11:13:57;;;;;;;6.50;2.40;;;;;;;;;;5071851;28;20248;-54
2023/05/29 11:16:37;;;;;;;8.73;3.13;;;;;;;;;;5071857;28;20280;-54
2023/05/29 11:19:04;;;;;;;8.73;3.50;;;;;;;;;;5071786;28;20207;-54
2023/05/29 11:21:32;;;;;;;7.73;3.20;;;;;;;;;;5071744;28;20676;-53
2023/05/29 11:24:02;;;;;;;7.37;2.87;;;;;;;;;;5071707;28;20227;-54
2023/05/29 11:26:29;;;;;;;5.57;3.03;;;;;;;;;;5071504;28;20260;-54
2023/05/29 11:28:57;;;;;;;8.33;3.00;;;;;;;;;;5071666;28;20203;-52
2023/05/29 11:31:24;;;;;;;7.10;3.10;;;;;;;;;;5071519;28;20238;-53
2023/05/29 11:33:50;;;;;;;6.50;3.00;;;;;;;;;;5071590;28;20659;-53
2023/05/29 11:36:18;;;;;;;6.90;2.80;;;;;;;;;;5071571;28;20204;-53
2023/05/29 11:38:44;;;;;;;6.37;2.63;;;;;;;;;;5071629;28;20184;-53
2023/05/29 11:41:12;;;;;;;7.23;2.97;;;;;;;;;;5071386;28;20271;-53
2023/05/29 11:43:38;;;;;;;6.07;2.67;;;;;;;;;;5071533;28;20692;-53
2023/05/29 11:46:14;;;;;;;12.40;6.97;;;;;;;;;;5071254;28;20636;-54
2023/05/29 11:48:45;;;;;;;6.33;3.20;;;;;;;;;;5071423;28;20199;-53
2023/05/29 11:51:12;;;;;;;7.47;3.10;;;;;;;;;;5073731;28;20199;-54
2023/05/29 11:53:41;;;;;;;6.60;2.80;;;;;;;;;;5075088;28;20199;-52
2023/05/29 11:56:08;;;;;;;8.07;2.77;;;;;;;;;;5074925;28;20582;-55
2023/05/29 11:58:36;;;;;;;10.47;3.33;;;;;;;;;;5075100;28;20196;-54
2023/05/29 12:01:02;;;;;;;7.60;3.03;;;;;;;;;;5074738;28;20363;-54
2023/05/29 12:03:28;;;;;;;7.63;2.97;;;;;;;;;;5074554;28;20201;-54
2023/05/29 12:05:55;;;;;;;7.80;2.63;;;;;;;;;;5074692;28;20215;-54
2023/05/29 12:08:22;;;;;;;5.03;2.80;;;;;;;;;;5074612;28;20209;-53
2023/05/29 12:10:51;;;;;;;6.60;3.10;;;;;;;;;;5074857;28;20352;-54
2023/05/29 12:13:19;;;;;;;7.17;2.83;;;;;;;;;;5074421;28;20197;-54
2023/05/29 12:15:48;;;;;;;5.30;2.97;;;;;;;;;;5073954;28;20213;-54
2023/05/29 12:18:14;;;;;;;8.27;3.00;;;;;;;;;;5072693;28;20212;-54
2023/05/29 12:20:40;;;;;;;7.30;2.77;;;;;;;;;;5074601;28;20221;-54
2023/05/29 12:23:06;;;;;;;5.80;2.63;;;;;;;;;;5074063;28;20291;-54
2023/05/29 12:25:36;;;;;;;6.83;3.10;;;;;;;;;;5074461;28;20629;-53
2023/05/29 12:28:03;;;;;;;5.90;2.27;;;;;;;;;;5074376;28;20203;-53
2023/05/29 12:30:28;;;;;;;6.33;2.57;;;;;;;;;;5074291;28;20229;-52
2023/05/29 12:32:56;;;;;;;5.80;2.70;;;;;;;;;;5074250;28;20232;-55
2023/05/29 12:35:23;;;;;;;7.30;2.53;;;;;;;;;;5074059;28;20205;-53
2023/05/29 12:37:50;;;;;;;6.57;4.53;;;;;;;;;;5074324;28;20206;-52
2023/05/29 12:40:17;;;;;;;6.90;2.77;;;;;;;;;;5074005;28;20286;-53
2023/05/29 12:42:43;;;;;;;8.00;3.07;;;;;;;;;;5074164;28;20649;-54
2023/05/29 12:45:09;;;;;;;7.27;2.73;;;;;;;;;;5074164;28;20223;-54
2023/05/29 12:47:35;;;;;;;6.30;2.83;;;;;;;;;;5074214;28;20566;-55
2023/05/29 12:50:16;;;;;;;6.07;2.73;;;;;;;;;;5073959;28;20212;-53
2023/05/29 12:52:42;;;;;;;13.23;11.13;;;;;;;;;;5073990;28;20731;-53
2023/05/29 12:55:08;;;;;;;6.67;3.33;;;;;;;;;;5073908;28;20197;-53
2023/05/29 12:57:34;;;;;;;6.83;2.63;;;;;;;;;;5074164;28;20256;-53
2023/05/29 13:00:00;;;;;;;6.10;3.10;;;;;;;;;;5073824;28;20229;-54
2023/05/29 13:02:26;;;;;;;8.27;4.00;;;;;;;;;;5064599;28;20340;-54
2023/05/29 13:04:52;;;;;;;8.00;3.13;;;;;;;;;;5070930;28;20307;-53
2023/05/29 13:07:19;;;;;;;9.60;3.30;;;;;;;;;;5073650;28;20194;-53
2023/05/29 13:09:46;;;;;;;8.20;3.73;;;;;;;;;;5073531;28;20205;-52
2023/05/29 13:12:12;;;;;;;9.70;3.03;;;;;;;;;;5073113;28;20205;-51
2023/05/29 13:14:38;;;;;;;6.07;2.67;;;;;;;;;;5073336;28;20196;-52
2023/05/29 13:17:06;;;;;;;10.63;2.90;;;;;;;;;;5073220;28;20261;-53
2023/05/29 13:19:32;;;;;;;6.97;2.30;;;;;;;;;;5071449;28;20256;-52
2023/05/29 13:22:10;;;;;;;6.47;2.97;;;;;;;;;;5073360;28;20204;-53
2023/05/29 13:24:38;;;;;;;7.07;2.80;;;;;;;;;;5068650;28;20263;-52
2023/05/29 13:27:05;;;;;;;6.20;2.67;;;;;;;;;;5073196;28;20210;-53
2023/05/29 13:29:31;;;;;;;9.70;3.67;;;;;;;;;;5069282;28;20199;-51
2023/05/29 13:31:57;;;;;;;6.73;2.63;;;;;;;;;;5073080;28;20205;-50
2023/05/29 13:34:28;;;;;;;8.07;2.90;;;;;;;;;;5072758;28;20197;-52
2023/05/29 13:36:54;;;;;;;8.60;3.13;;;;;;;;;;5070682;28;20211;-51
2023/05/29 13:39:20;;;;;;;7.10;2.90;;;;;;;;;;5071923;28;20196;-51
2023/05/29 13:41:47;;;;;;;8.13;3.00;;;;;;;;;;5072565;28;20689;-51
2023/05/29 13:44:13;;;;;;;8.60;2.73;;;;;;;;;;5072398;28;20213;-51
2023/05/29 13:46:39;;;;;;;7.10;3.10;;;;;;;;;;5072476;28;20193;-52
2023/05/29 13:49:07;;;;;;;6.67;2.87;;;;;;;;;;5072641;28;20203;-52
2023/05/29 13:51:33;;;;;;;10.37;2.90;;;;;;;;;;5072663;28;20221;-51
2023/05/29 13:53:59;;;;;;;7.67;2.80;;;;;;;;;;5072749;28;20195;-52
2023/05/29 13:56:26;;;;;;;8.00;2.97;;;;;;;;;;5072265;28;20284;-51
2023/05/29 13:58:54;;;;;;;6.60;2.80;;;;;;;;;;5072414;28;20278;-51
2023/05/29 14:01:20;;;;;;;6.40;2.60;;;;;;;;;;5072054;28;20262;-51
2023/05/29 14:03:46;;;;;;;6.80;2.73;;;;;;;;;;5072101;28;21513;-51
2023/05/29 14:06:12;;;;;;;4.70;2.40;;;;;;;;;;5072402;28;20228;-51
2023/05/29 14:08:38;;;;;;;8.43;3.00;;;;;;;;;;5072004;28;20565;-50
2023/05/29 14:11:04;;;;;;;5.50;2.70;;;;;;;;;;5072275;28;20187;-51
2023/05/29 14:13:30;;;;;;;7.73;2.87;;;;;;;;;;5071455;28;20199;-51
2023/05/29 14:15:58;;;;;;;6.63;2.80;;;;;;;;;;5072037;28;20268;-51
2023/05/29 14:18:24;;;;;;;8.17;3.03;;;;;;;;;;5072158;28;20287;-51
2023/05/29 14:20:50;;;;;;;7.77;3.20;;;;;;;;;;5072353;28;20223;-51
2023/05/29 14:23:17;;;;;;;7.00;2.97;;;;;;;;;;5071927;28;20598;-52
2023/05/29 14:25:44;;;;;;;9.17;3.00;;;;;;;;;;5072101;28;20686;-51
2023/05/29 14:28:10;;;;;;;8.57;3.20;;;;;;;;;;5072081;28;20203;-51
2023/05/29 14:30:36;;;;;;;8.83;3.43;;;;;;;;;;5072185;28;20255;-51
2023/05/29 14:33:04;;;;;;;7.33;3.10;;;;;;;;;;5071872;28;20192;-51
2023/05/29 14:35:30;;;;;;;9.30;3.23;;;;;;;;;;5069805;28;20716;-51
2023/05/29 14:37:56;;;;;;;9.60;3.20;;;;;;;;;;5071428;28;20200;-51
2023/05/29 14:40:22;;;;;;;7.87;3.03;;;;;;;;;;5071063;28;20297;-51